Terminal Aerodrome Forecast
Issued by NWS Wichita, KS

Home | Current Version | Previous Version | Graphics & Text | Print | Product List | Glossary On
Versions: 1 2 3 4 5 6 7 8 9 10 11 12
000
FTUS43 KICT 212320
TAFICT
TAF
KICT 212320Z 2200/2224 17018G25KT P6SM FEW060
     FM220800 17015KT P6SM SKC
     FM221500 18017G24KT P6SM SCT060=

USA.gov is the U.S. government's official web portal to all federal, state and local government web resources and services.